Time;durP1;ratioP1;P1;durP2;ratioP2;P2;SDS_P1;SDS_P2;PMS_P1;PMS_P2;Temp;Humidity;BMP_temperature;BMP_pressure;BME280_temperature;BME280_humidity;BME280_pressure;Samples;Min_cycle;Max_cycle;Signal;HPM_P1;HPM_P2
2022/10/15 00:01:13;;;;;;;34.75;27.67;;;;;;;11.86;100.00;100639.94;4987572;28;20084;-56
2022/10/15 00:03:40;;;;;;;43.53;29.42;;;;;;;11.85;100.00;100646.19;4974005;28;20076;-56
2022/10/15 00:06:08;;;;;;;31.98;25.33;;;;;;;11.72;100.00;100643.56;4991473;28;20378;-56
2022/10/15 00:08:33;;;;;;;38.05;29.83;;;;;;;11.73;100.00;100630.09;4958818;28;20030;-56
2022/10/15 00:11:05;;;;;;;40.50;31.42;;;;;;;11.81;100.00;100650.88;4991439;28;20511;-56
2022/10/15 00:13:32;;;;;;;37.38;28.17;;;;;;;11.74;100.00;100641.63;4992394;28;20027;-56
2022/10/15 00:15:57;;;;;;;42.58;30.83;;;;;;;11.84;100.00;100642.66;4986594;28;20034;-56
2022/10/15 00:18:22;;;;;;;33.92;27.20;;;;;;;11.82;100.00;100652.56;4973890;28;20038;-56
2022/10/15 00:20:48;;;;;;;35.97;28.13;;;;;;;11.80;100.00;100644.72;4989455;28;20034;-56
2022/10/15 00:23:14;;;;;;;40.55;31.27;;;;;;;11.91;100.00;100651.97;4973467;28;20050;-56
2022/10/15 00:25:41;;;;;;;37.67;29.83;;;;;;;11.91;100.00;100648.44;4986895;28;20068;-56
2022/10/15 00:28:07;;;;;;;34.28;27.85;;;;;;;11.91;100.00;100651.97;4957901;28;20129;-56
2022/10/15 00:30:32;;;;;;;40.53;30.98;;;;;;;11.91;100.00;100651.09;4973541;28;20541;-56
2022/10/15 00:32:58;;;;;;;37.00;27.42;;;;;;;11.90;100.00;100652.06;4990718;28;20127;-56
2022/10/15 00:35:25;;;;;;;34.60;26.70;;;;;;;11.88;100.00;100661.97;4974373;28;20079;-56
2022/10/15 00:37:51;;;;;;;35.25;28.02;;;;;;;11.90;100.00;100658.25;4991403;28;20019;-56
2022/10/15 00:40:18;;;;;;;34.85;28.10;;;;;;;11.92;100.00;100648.34;4990944;28;20495;-56
2022/10/15 00:42:44;;;;;;;34.47;27.67;;;;;;;11.86;100.00;100648.78;4965557;28;20026;-56
2022/10/15 00:45:13;;;;;;;37.40;29.20;;;;;;;11.88;100.00;100651.31;4976281;28;20027;-56
2022/10/15 00:47:41;;;;;;;36.83;28.23;;;;;;;11.89;100.00;100658.38;4987265;28;20180;-56
2022/10/15 00:50:19;;;;;;;35.13;27.88;;;;;;;11.96;100.00;100657.81;4982260;28;20045;-56
2022/10/15 00:53:04;;;;;;;33.55;26.90;;;;;;;11.97;100.00;100654.19;4981589;28;20049;-56
2022/10/15 00:55:33;;;;;;;36.97;28.25;;;;;;;12.01;100.00;100658.34;4990685;28;20031;-56
2022/10/15 00:58:06;;;;;;;34.97;28.60;;;;;;;11.96;100.00;100654.28;4990570;28;20109;-56
2022/10/15 01:00:32;;;;;;;31.65;28.13;;;;;;;12.01;100.00;100661.00;4989867;28;20057;-56
2022/10/15 01:02:58;;;;;;;36.33;28.88;;;;;;;12.03;100.00;100661.75;4973425;28;20030;-56
2022/10/15 01:05:23;;;;;;;31.30;27.02;;;;;;;12.03;100.00;100659.09;4980501;28;20058;-56
2022/10/15 01:07:49;;;;;;;34.17;28.80;;;;;;;11.90;100.00;100633.41;4990702;28;20065;-57
2022/10/15 01:10:15;;;;;;;32.53;27.33;;;;;;;12.01;100.00;100654.81;4972597;28;20442;-56
2022/10/15 01:12:51;;;;;;;35.08;27.83;;;;;;;12.08;100.00;100661.41;4974422;28;20026;-57
2022/10/15 01:15:43;;;;;;;34.38;28.42;;;;;;;12.10;100.00;100656.81;4984048;28;20096;-56
2022/10/15 01:18:13;;;;;;;32.63;27.40;;;;;;;12.09;100.00;100651.59;4984691;28;20058;-56
2022/10/15 01:20:55;;;;;;;30.73;27.42;;;;;;;12.11;100.00;100644.34;4981072;28;20039;-56
2022/10/15 01:23:42;;;;;;;31.48;28.08;;;;;;;12.15;100.00;100651.16;4985384;28;20074;-56
2022/10/15 01:26:20;;;;;;;31.35;27.95;;;;;;;12.16;100.00;100636.84;4975956;28;20401;-56
2022/10/15 01:29:10;;;;;;;30.80;27.15;;;;;;;12.19;100.00;100639.31;4973674;28;20493;-56
2022/10/15 01:31:43;;;;;;;32.75;26.75;;;;;;;12.22;100.00;100631.06;4989050;28;20405;-57
2022/10/15 01:34:20;;;;;;;31.85;28.25;;;;;;;12.23;100.00;100630.94;4987019;28;20389;-57
2022/10/15 01:36:53;;;;;;;30.55;26.42;;;;;;;12.23;100.00;100628.28;4980550;28;20053;-56
2022/10/15 01:39:37;;;;;;;29.83;26.67;;;;;;;12.24;100.00;100622.00;4977989;28;20071;-56
2022/10/15 01:42:17;;;;;;;31.58;26.75;;;;;;;12.24;100.00;100624.66;4990616;28;20396;-57
2022/10/15 01:44:57;;;;;;;33.88;28.38;;;;;;;12.21;100.00;100610.72;4989208;28;20033;-56
2022/10/15 01:47:27;;;;;;;31.80;26.67;;;;;;;12.27;100.00;100628.94;4988533;28;20387;-57
2022/10/15 01:49:54;;;;;;;30.65;27.35;;;;;;;12.28;100.00;100625.28;4971016;28;20401;-57
2022/10/15 01:52:28;;;;;;;32.15;26.55;;;;;;;12.28;100.00;100625.28;4971134;28;20448;-57
2022/10/15 01:54:55;;;;;;;32.83;27.10;;;;;;;12.30;100.00;100618.03;4987288;28;20030;-57
2022/10/15 01:57:24;;;;;;;32.20;27.13;;;;;;;12.31;100.00;100618.88;4987837;28;20065;-57
2022/10/15 01:59:49;;;;;;;30.20;26.85;;;;;;;12.30;100.00;100610.03;4959488;28;20042;-57
2022/10/15 02:02:15;;;;;;;30.48;27.15;;;;;;;12.34;100.00;100610.66;4980081;28;20513;-56
2022/10/15 02:04:40;;;;;;;29.70;26.50;;;;;;;12.32;100.00;100608.09;4970391;28;20030;-56
2022/10/15 02:07:05;;;;;;;34.17;26.65;;;;;;;12.32;100.00;100607.25;4971067;28;20034;-57
2022/10/15 02:09:52;;;;;;;32.80;26.90;;;;;;;12.35;100.00;100607.00;4981632;28;20156;-57
2022/10/15 02:12:37;;;;;;;32.65;27.52;;;;;;;12.36;100.00;100606.06;4989730;28;20489;-56
2022/10/15 02:15:24;;;;;;;33.55;27.60;;;;;;;12.36;100.00;100604.25;4982698;28;20106;-56
2022/10/15 02:18:11;;;;;;;29.88;25.65;;;;;;;12.38;100.00;100598.78;4983037;28;20546;-56
2022/10/15 02:20:55;;;;;;;29.75;26.58;;;;;;;12.36;100.00;100598.91;4985994;28;20114;-57
2022/10/15 02:23:51;;;;;;;36.60;27.92;;;;;;;12.37;100.00;100587.25;4981504;28;20051;-56
2022/10/15 02:26:19;;;;;;;31.52;26.75;;;;;;;12.37;100.00;100586.41;4971997;28;20026;-56
2022/10/15 02:28:50;;;;;;;32.58;27.95;;;;;;;12.37;100.00;100589.94;4989341;28;20038;-57
2022/10/15 02:31:19;;;;;;;31.85;27.05;;;;;;;12.37;100.00;100587.25;4971514;28;20030;-56
2022/10/15 02:33:47;;;;;;;31.42;27.98;;;;;;;12.33;100.00;100576.97;4981965;28;20022;-56
2022/10/15 02:36:13;;;;;;;31.48;27.38;;;;;;;12.35;100.00;100583.00;4988565;28;20079;-56
2022/10/15 02:38:42;;;;;;;31.50;27.23;;;;;;;12.37;100.00;100575.75;4970712;28;20362;-58
2022/10/15 02:41:09;;;;;;;33.35;29.25;;;;;;;12.38;100.00;100569.44;4970940;28;20524;-56
2022/10/15 02:43:35;;;;;;;35.40;27.52;;;;;;;12.37;100.00;100567.75;5000254;28;20033;-56
2022/10/15 02:46:01;;;;;;;33.80;29.40;;;;;;;12.39;100.00;100564.00;4971934;28;20030;-56
2022/10/15 02:48:28;;;;;;;31.35;27.88;;;;;;;12.39;100.00;100563.16;4971492;28;20042;-56
2022/10/15 02:50:54;;;;;;;33.05;28.63;;;;;;;12.39;100.00;100558.66;4971987;28;20034;-56
2022/10/15 02:53:19;;;;;;;35.97;28.55;;;;;;;12.38;100.00;100556.09;4988581;28;20053;-56
2022/10/15 02:55:45;;;;;;;34.80;27.92;;;;;;;12.39;100.00;100560.50;4971075;28;20109;-56
2022/10/15 02:58:11;;;;;;;36.55;27.42;;;;;;;12.38;100.00;100553.44;4971135;28;20019;-56
2022/10/15 03:00:37;;;;;;;31.33;27.73;;;;;;;12.39;100.00;100544.50;4989123;28;20037;-56
2022/10/15 03:03:03;;;;;;;34.88;28.42;;;;;;;12.40;100.00;100540.84;4987748;28;20033;-56
2022/10/15 03:05:28;;;;;;;33.03;28.83;;;;;;;12.40;100.00;100538.19;4989214;28;20030;-56
2022/10/15 03:07:57;;;;;;;33.03;29.30;;;;;;;12.41;100.00;100546.09;4989589;28;20385;-56
2022/10/15 03:10:22;;;;;;;36.57;29.10;;;;;;;12.39;100.00;100536.50;4989495;28;20060;-56
2022/10/15 03:12:50;;;;;;;32.95;27.83;;;;;;;12.43;100.00;100544.13;4955907;28;20030;-56
2022/10/15 03:15:15;;;;;;;34.72;28.27;;;;;;;12.39;100.00;100540.00;4972626;28;20023;-57
2022/10/15 03:17:42;;;;;;;34.20;28.77;;;;;;;12.38;100.00;100540.97;4989285;28;20022;-56
2022/10/15 03:20:07;;;;;;;34.03;27.80;;;;;;;12.37;100.00;100533.94;4986582;28;20380;-56
2022/10/15 03:22:33;;;;;;;32.17;27.35;;;;;;;12.38;100.00;100545.44;4988386;28;20031;-56
2022/10/15 03:24:59;;;;;;;37.20;28.13;;;;;;;12.36;100.00;100542.91;4971363;28;20049;-56
2022/10/15 03:27:27;;;;;;;34.25;27.80;;;;;;;12.38;100.00;100548.09;4987533;28;20037;-56
2022/10/15 03:29:52;;;;;;;34.05;27.30;;;;;;;12.37;100.00;100538.41;4960829;28;20441;-56
2022/10/15 03:32:18;;;;;;;39.72;30.15;;;;;;;12.38;100.00;100542.78;4988345;28;20113;-56
2022/10/15 03:34:46;;;;;;;38.47;29.30;;;;;;;12.37;100.00;100543.75;4987824;28;20041;-56
2022/10/15 03:37:11;;;;;;;40.25;30.13;;;;;;;12.38;100.00;100540.97;4989351;28;20396;-56
2022/10/15 03:39:37;;;;;;;40.05;29.38;;;;;;;12.42;100.00;100544.25;4955355;28;20041;-56
2022/10/15 03:42:05;;;;;;;39.28;29.20;;;;;;;12.41;100.00;100547.88;4988216;28;20038;-56
2022/10/15 03:44:31;;;;;;;41.42;30.85;;;;;;;12.42;100.00;100536.25;4988197;28;20064;-57
2022/10/15 03:46:56;;;;;;;39.05;30.23;;;;;;;12.41;100.00;100535.41;4970507;28;20506;-57
2022/10/15 03:49:21;;;;;;;39.70;30.20;;;;;;;12.42;100.00;100526.44;4987908;28;20080;-57
2022/10/15 03:51:47;;;;;;;40.13;30.75;;;;;;;12.42;100.00;100529.09;4988719;28;20061;-56
2022/10/15 03:54:12;;;;;;;37.30;28.13;;;;;;;12.42;100.00;100528.25;4985714;28;20504;-56
2022/10/15 03:56:37;;;;;;;41.55;31.27;;;;;;;12.44;100.00;100531.63;4975809;28;20038;-57
2022/10/15 03:59:06;;;;;;;41.47;29.70;;;;;;;12.43;100.00;100528.13;4954615;28;20062;-56
2022/10/15 04:01:31;;;;;;;36.75;29.25;;;;;;;12.43;100.00;100529.94;4988495;28;20026;-56
2022/10/15 04:03:57;;;;;;;38.95;29.77;;;;;;;12.41;100.00;100534.53;4988518;28;20412;-56
2022/10/15 04:06:22;;;;;;;40.60;29.90;;;;;;;12.43;100.00;100538.78;4988927;28;20058;-56
2022/10/15 04:08:48;;;;;;;41.15;31.23;;;;;;;12.41;100.00;100526.53;4989331;28;20093;-56
2022/10/15 04:11:13;;;;;;;40.05;30.45;;;;;;;12.44;100.00;100531.63;4983126;28;20087;-56
2022/10/15 04:13:39;;;;;;;40.28;30.27;;;;;;;12.43;100.00;100540.63;4992069;28;20034;-56
2022/10/15 04:16:05;;;;;;;43.38;32.33;;;;;;;12.43;100.00;100530.78;4991199;28;20435;-56
2022/10/15 04:18:31;;;;;;;42.45;31.52;;;;;;;12.46;100.00;100535.88;4991478;28;20030;-56
2022/10/15 04:21:00;;;;;;;41.72;32.83;;;;;;;12.46;100.00;100532.38;4983779;28;20080;-56
2022/10/15 04:23:26;;;;;;;47.15;33.78;;;;;;;12.46;100.00;100546.56;4973286;28;20046;-56
2022/10/15 04:25:54;;;;;;;45.00;33.15;;;;;;;12.41;100.00;100530.06;4958507;28;20076;-56
2022/10/15 04:28:20;;;;;;;52.67;34.58;;;;;;;12.48;100.00;100539.31;4973542;28;20027;-56
2022/10/15 04:30:45;;;;;;;50.85;35.30;;;;;;;12.49;100.00;100535.66;4984799;28;20064;-56
2022/10/15 04:33:10;;;;;;;46.55;34.55;;;;;;;12.52;100.00;100541.72;4959910;28;20054;-56
2022/10/15 04:35:38;;;;;;;52.63;37.40;;;;;;;12.52;100.00;100531.91;4975882;28;20125;-56
2022/10/15 04:38:04;;;;;;;47.00;35.70;;;;;;;12.55;100.00;100522.81;4984139;28;20453;-56
2022/10/15 04:40:29;;;;;;;53.50;36.70;;;;;;;12.55;100.00;100526.34;4982983;28;20035;-56
2022/10/15 04:42:54;;;;;;;51.83;36.03;;;;;;;12.56;100.00;100525.38;5011240;28;20065;-56
2022/10/15 04:45:22;;;;;;;49.75;35.90;;;;;;;12.57;100.00;100526.22;4978993;28;20390;-56
2022/10/15 04:47:48;;;;;;;50.10;35.80;;;;;;;12.51;100.00;100514.22;4986815;28;20030;-56
2022/10/15 04:50:14;;;;;;;51.08;34.65;;;;;;;12.59;100.00;100526.94;4973935;28;20096;-56
2022/10/15 04:52:39;;;;;;;49.83;35.38;;;;;;;12.60;100.00;100528.66;4990801;28;20033;-56
2022/10/15 04:55:06;;;;;;;51.20;36.15;;;;;;;12.62;100.00;100526.75;4989217;28;20451;-56
2022/10/15 04:57:31;;;;;;;52.30;36.30;;;;;;;12.63;100.00;100523.94;5005697;28;20026;-56
2022/10/15 04:59:56;;;;;;;51.65;36.60;;;;;;;12.64;100.00;100519.44;4990529;28;20122;-56
2022/10/15 05:02:22;;;;;;;52.85;35.42;;;;;;;12.64;100.00;100525.63;4973505;28;20487;-56
2022/10/15 05:04:50;;;;;;;48.00;35.13;;;;;;;12.64;100.00;100522.97;4972476;28;20069;-56
2022/10/15 05:07:15;;;;;;;50.72;34.90;;;;;;;12.64;100.00;100527.44;4972017;28;20424;-56
2022/10/15 05:09:41;;;;;;;45.55;34.25;;;;;;;12.63;100.00;100518.59;4984382;28;20088;-56
2022/10/15 05:12:07;;;;;;;43.47;33.47;;;;;;;12.63;100.00;100528.44;4991385;28;20091;-56
2022/10/15 05:14:34;;;;;;;42.50;31.63;;;;;;;12.63;100.00;100531.09;4957640;28;20027;-56
2022/10/15 05:17:00;;;;;;;45.33;32.70;;;;;;;12.63;100.00;100531.09;4990422;28;20514;-56
2022/10/15 05:19:28;;;;;;;37.45;29.98;;;;;;;12.62;100.00;100532.91;4990863;28;20034;-56
2022/10/15 05:21:53;;;;;;;41.53;31.50;;;;;;;12.64;100.00;100540.78;4973449;28;20497;-56
2022/10/15 05:24:19;;;;;;;40.47;31.73;;;;;;;12.62;100.00;100530.25;4991158;28;20123;-56
2022/10/15 05:26:45;;;;;;;40.85;31.17;;;;;;;12.59;100.00;100530.50;4991152;28;20031;-56
2022/10/15 05:29:10;;;;;;;41.72;31.70;;;;;;;12.58;100.00;100536.78;4989880;28;20533;-56
2022/10/15 05:31:36;;;;;;;43.55;31.67;;;;;;;12.58;100.00;100536.78;4990840;28;20121;-57
2022/10/15 05:34:07;;;;;;;41.53;31.98;;;;;;;12.57;100.00;100543.09;4990506;28;20041;-57
2022/10/15 05:36:33;;;;;;;43.17;31.77;;;;;;;12.55;100.00;100534.34;4973665;28;20026;-56
2022/10/15 05:39:01;;;;;;;40.63;32.00;;;;;;;12.55;100.00;100534.34;4973651;28;20035;-57
2022/10/15 05:41:28;;;;;;;45.53;32.95;;;;;;;12.51;100.00;100532.88;4988857;28;20435;-57
2022/10/15 05:43:56;;;;;;;42.97;31.90;;;;;;;12.56;100.00;100538.72;4989390;28;20031;-57
2022/10/15 05:46:24;;;;;;;45.53;31.58;;;;;;;12.56;100.00;100529.84;4989631;28;20026;-56
2022/10/15 05:48:51;;;;;;;40.08;31.13;;;;;;;12.56;100.00;100533.41;4989973;28;20030;-57
2022/10/15 05:51:17;;;;;;;44.80;32.03;;;;;;;12.56;100.00;100521.84;4990265;28;20038;-57
2022/10/15 05:53:45;;;;;;;41.78;32.17;;;;;;;12.49;100.00;100508.13;4990502;28;20029;-57
2022/10/15 05:56:11;;;;;;;40.88;30.10;;;;;;;12.58;100.00;100520.75;4973622;28;20023;-56
2022/10/15 05:58:39;;;;;;;41.83;32.40;;;;;;;12.57;100.00;100519.06;4990424;28;20114;-56
2022/10/15 06:01:07;;;;;;;42.85;31.77;;;;;;;12.58;100.00;100527.91;4990704;28;20064;-56
2022/10/15 06:03:33;;;;;;;43.08;32.50;;;;;;;12.58;100.00;100528.78;4990057;28;20034;-56
2022/10/15 06:06:01;;;;;;;44.15;31.88;;;;;;;12.56;100.00;100528.06;4990531;28;20030;-56
2022/10/15 06:08:28;;;;;;;43.83;31.30;;;;;;;12.55;100.00;100531.66;4989645;28;20045;-56
2022/10/15 06:10:57;;;;;;;41.03;31.55;;;;;;;12.56;100.00;100532.53;4990098;28;20026;-56
2022/10/15 06:13:26;;;;;;;41.65;31.45;;;;;;;12.56;100.00;100524.50;4990034;28;20033;-56
2022/10/15 06:15:54;;;;;;;44.75;32.40;;;;;;;12.56;100.00;100524.50;4990469;28;20068;-56
2022/10/15 06:18:19;;;;;;;42.72;31.02;;;;;;;12.56;100.00;100524.50;4990547;28;20026;-56
2022/10/15 06:20:53;;;;;;;43.15;32.08;;;;;;;12.56;100.00;100532.53;4989777;28;20030;-56
2022/10/15 06:23:22;;;;;;;46.65;33.60;;;;;;;12.55;100.00;100529.00;4990229;28;20047;-56
2022/10/15 06:25:48;;;;;;;49.17;34.60;;;;;;;12.55;100.00;100537.00;4972664;28;20030;-56
2022/10/15 06:28:16;;;;;;;44.33;33.85;;;;;;;12.54;100.00;100527.31;4990095;28;20113;-56
2022/10/15 06:30:45;;;;;;;46.47;33.50;;;;;;;12.54;100.00;100527.31;4989802;28;20026;-56
2022/10/15 06:33:10;;;;;;;52.03;36.83;;;;;;;12.55;100.00;100526.34;4989255;28;20023;-57
2022/10/15 06:35:36;;;;;;;48.70;36.08;;;;;;;12.56;100.00;100524.50;4989980;28;20045;-56
2022/10/15 06:38:03;;;;;;;53.42;36.53;;;;;;;12.55;100.00;100533.50;4990185;28;20511;-56
2022/10/15 06:40:28;;;;;;;51.78;37.38;;;;;;;12.56;100.00;100525.38;4989437;28;20201;-56
2022/10/15 06:42:54;;;;;;;52.97;37.03;;;;;;;12.57;100.00;100535.09;4972489;28;20504;-56
2022/10/15 06:45:19;;;;;;;52.78;37.67;;;;;;;12.58;100.00;100527.91;4972517;28;20034;-56
2022/10/15 06:47:47;;;;;;;52.53;38.60;;;;;;;12.57;100.00;100523.56;4972639;28;20030;-56
2022/10/15 06:50:12;;;;;;;53.78;36.90;;;;;;;12.56;100.00;100519.19;4989028;28;20026;-56
2022/10/15 06:52:38;;;;;;;55.92;38.47;;;;;;;12.54;100.00;100519.31;4972366;28;20539;-56
2022/10/15 06:55:06;;;;;;;49.40;35.03;;;;;;;12.48;100.00;100507.28;4956286;28;20113;-56
2022/10/15 06:57:35;;;;;;;46.70;35.45;;;;;;;12.51;100.00;100522.22;4989889;28;20470;-56
2022/10/15 07:00:02;;;;;;;44.42;34.08;;;;;;;12.50;100.00;100525.88;4972050;28;20046;-56
2022/10/15 07:02:28;;;;;;;43.58;32.72;;;;;;;12.51;100.00;100524.88;4989635;28;20549;-56
2022/10/15 07:04:54;;;;;;;45.42;33.78;;;;;;;12.50;100.00;100513.38;4971817;28;20126;-56
2022/10/15 07:07:19;;;;;;;43.63;32.00;;;;;;;12.52;100.00;100525.72;4989770;28;20125;-56
2022/10/15 07:09:46;;;;;;;40.83;31.40;;;;;;;12.53;100.00;100530.97;4988829;28;20061;-56
2022/10/15 07:12:11;;;;;;;45.47;31.20;;;;;;;12.55;100.00;100537.00;4972512;28;20554;-56
2022/10/15 07:14:37;;;;;;;41.63;29.42;;;;;;;12.56;100.00;100537.84;4989545;28;20022;-56
2022/10/15 07:17:03;;;;;;;42.47;30.58;;;;;;;12.51;100.00;100527.56;4989678;28;20064;-56
2022/10/15 07:19:28;;;;;;;43.00;31.38;;;;;;;12.59;100.00;100535.81;4988778;28;20062;-57
2022/10/15 07:21:54;;;;;;;39.22;29.73;;;;;;;12.64;100.00;100533.63;4972079;28;20045;-56
2022/10/15 07:24:19;;;;;;;39.13;29.70;;;;;;;12.68;100.00;100526.25;4988881;28;20050;-56
2022/10/15 07:26:46;;;;;;;40.53;30.77;;;;;;;12.68;100.00;100516.44;4989220;28;20030;-56
2022/10/15 07:29:12;;;;;;;38.28;29.35;;;;;;;12.77;100.00;100506.03;4989413;28;20109;-56
2022/10/15 07:31:37;;;;;;;36.38;28.70;;;;;;;12.84;100.00;100510.75;4972222;28;20030;-56
2022/10/15 07:34:05;;;;;;;39.33;28.65;;;;;;;12.86;100.00;100503.47;4988779;28;20038;-57
2022/10/15 07:36:30;;;;;;;34.45;27.80;;;;;;;12.87;100.00;100502.50;4989258;28;20030;-56
2022/10/15 07:38:56;;;;;;;35.85;27.15;;;;;;;12.90;100.00;100496.91;4988226;28;20504;-56
2022/10/15 07:41:22;;;;;;;34.97;26.23;;;;;;;12.91;100.00;100490.63;4971796;28;20393;-56
2022/10/15 07:43:50;;;;;;;33.15;25.88;;;;;;;12.89;100.00;100505.06;4989124;28;20034;-56
2022/10/15 07:46:15;;;;;;;34.45;25.77;;;;;;;12.89;100.00;100503.25;4975643;28;20487;-56
2022/10/15 07:48:41;;;;;;;35.53;26.33;;;;;;;12.91;100.00;100497.75;4991793;28;20038;-56
2022/10/15 07:51:06;;;;;;;33.05;24.40;;;;;;;12.98;100.00;100487.47;4959444;28;20038;-56
2022/10/15 07:53:32;;;;;;;32.85;23.60;;;;;;;13.05;100.00;100489.53;4991804;28;20034;-56
2022/10/15 07:56:03;;;;;;;33.15;24.77;;;;;;;13.14;100.00;100488.78;4992669;28;20030;-56
2022/10/15 07:58:29;;;;;;;27.80;21.83;;;;;;;13.22;100.00;100492.69;4992273;28;20022;-56
2022/10/15 08:00:59;;;;;;;26.75;21.38;;;;;;;13.27;100.00;100485.19;4992514;28;20041;-56
2022/10/15 08:03:24;;;;;;;28.88;20.85;;;;;;;13.32;100.00;100480.31;4992203;28;20030;-56
2022/10/15 08:05:52;;;;;;;27.35;20.65;;;;;;;13.34;100.00;100489.06;4974342;28;20045;-56
2022/10/15 08:08:18;;;;;;;23.77;19.95;;;;;;;13.37;100.00;100486.97;4975141;28;20038;-55
2022/10/15 08:10:46;;;;;;;24.15;19.30;;;;;;;13.45;100.00;100478.34;4974916;28;20092;-56
2022/10/15 08:13:12;;;;;;;24.70;19.13;;;;;;;13.52;100.00;100476.03;4992339;28;20030;-56
2022/10/15 08:15:41;;;;;;;21.70;16.65;;;;;;;13.55;100.00;100470.44;4992060;28;20031;-56
2022/10/15 08:18:08;;;;;;;22.75;16.67;;;;;;;13.59;100.00;100464.72;4992352;28;20067;-56
2022/10/15 08:20:37;;;;;;;20.67;15.85;;;;;;;13.62;100.00;100468.97;4991844;28;20442;-56
2022/10/15 08:23:03;;;;;;;21.63;16.33;;;;;;;13.67;100.00;100473.91;4991783;28;20045;-57
2022/10/15 08:25:28;;;;;;;19.77;14.88;;;;;;;13.70;100.00;100465.66;4991594;28;20525;-56
2022/10/15 08:27:55;;;;;;;18.42;14.00;;;;;;;13.75;100.00;100476.81;4974952;28;20037;-56
2022/10/15 08:30:20;;;;;;;16.50;14.10;;;;;;;13.75;100.00;100475.00;4974616;28;20026;-56
2022/10/15 08:32:46;;;;;;;17.58;12.93;;;;;;;13.77;100.00;100475.72;4992102;28;20468;-56
2022/10/15 08:35:11;;;;;;;15.52;12.75;;;;;;;13.78;100.00;100482.75;4990869;28;20030;-56
2022/10/15 08:37:37;;;;;;;14.40;11.82;;;;;;;13.82;100.00;100462.84;4991665;28;20034;-56
2022/10/15 08:40:03;;;;;;;13.57;11.05;;;;;;;13.85;100.00;100459.03;4991814;28;20031;-56
2022/10/15 08:42:42;;;;;;;12.55;10.95;;;;;;;13.92;100.00;100449.53;4991911;28;20105;-56
2022/10/15 08:45:16;;;;;;;12.80;10.88;;;;;;;13.97;100.00;100446.47;4991839;28;20034;-56
2022/10/15 08:47:47;;;;;;;9.77;8.77;;;;;;;14.03;100.00;100451.28;4991283;28;20109;-57
2022/10/15 08:50:39;;;;;;;10.55;9.07;;;;;;;14.04;100.00;100451.19;4991206;28;20044;-56
2022/10/15 08:53:05;;;;;;;11.60;9.02;;;;;;;14.04;100.00;100442.31;4991833;28;20081;-56
2022/10/15 08:55:37;;;;;;;9.80;8.40;;;;;;;14.02;100.00;100445.09;4990364;28;20473;-56
2022/10/15 08:58:14;;;;;;;9.02;8.13;;;;;;;14.04;100.00;100434.28;4991461;28;20362;-56
2022/10/15 09:00:46;;;;;;;8.95;7.82;;;;;;;14.08;100.00;100430.38;4991481;28;20034;-56
2022/10/15 09:03:30;;;;;;;9.20;8.10;;;;;;;14.16;100.00;100424.38;4991112;28;20037;-57
2022/10/15 09:06:13;;;;;;;10.98;7.88;;;;;;;14.18;100.00;100420.59;4990709;28;20050;-56
2022/10/15 09:08:59;;;;;;;9.20;7.78;;;;;;;14.18;100.00;100420.59;4973933;28;20113;-57
2022/10/15 09:11:43;;;;;;;10.90;7.80;;;;;;;14.22;100.00;100418.50;4991495;28;20022;-57
2022/10/15 09:14:23;;;;;;;10.18;7.97;;;;;;;14.21;100.00;100419.50;4973377;28;20026;-56
2022/10/15 09:16:49;;;;;;;9.27;8.32;;;;;;;14.18;100.00;100425.13;4989389;28;20076;-56
2022/10/15 09:19:18;;;;;;;10.30;7.97;;;;;;;14.19;100.00;100430.31;4989690;28;20061;-56
2022/10/15 09:21:46;;;;;;;12.33;8.13;;;;;;;14.17;100.00;100415.38;4990366;28;20060;-56
2022/10/15 09:24:19;;;;;;;9.38;7.45;;;;;;;14.19;100.00;100416.94;4990658;28;20553;-56
2022/10/15 09:27:05;;;;;;;9.98;6.70;;;;;;;14.24;100.00;100421.91;4990106;28;20087;-56
2022/10/15 09:29:31;;;;;;;8.95;6.70;;;;;;;14.26;100.00;100422.59;4973289;28;20026;-56
2022/10/15 09:32:12;;;;;;;7.53;6.30;;;;;;;14.23;100.00;100428.22;4991190;28;20037;-56
2022/10/15 09:34:53;;;;;;;6.38;5.72;;;;;;;14.22;100.00;100416.69;4990431;28;20033;-56
2022/10/15 09:37:24;;;;;;;6.10;5.25;;;;;;;14.28;100.00;100412.63;4973711;28;20087;-57
2022/10/15 09:40:11;;;;;;;7.30;5.53;;;;;;;14.30;100.00;100419.56;4990593;28;20757;-56
2022/10/15 09:42:41;;;;;;;7.28;5.03;;;;;;;14.30;100.00;100419.56;4991123;28;20219;-57
2022/10/15 09:45:10;;;;;;;8.90;5.80;;;;;;;14.28;100.00;100413.47;4990928;28;20022;-57
2022/10/15 09:47:44;;;;;;;8.23;5.60;;;;;;;14.27;100.00;100398.41;4990792;28;20385;-57
2022/10/15 09:50:12;;;;;;;8.88;5.15;;;;;;;14.31;100.00;100404.34;4972661;28;20037;-57
2022/10/15 09:53:04;;;;;;;6.55;5.20;;;;;;;14.31;100.00;100404.34;4991110;28;20030;-56
2022/10/15 09:55:55;;;;;;;7.55;5.50;;;;;;;14.30;100.00;100403.50;4990604;28;20380;-56
2022/10/15 09:58:25;;;;;;;5.15;4.65;;;;;;;14.30;100.00;100400.00;4973454;28;20461;-56
2022/10/15 10:00:50;;;;;;;5.78;5.07;;;;;;;14.34;100.00;100396.06;4990258;28;20105;-56
2022/10/15 10:03:16;;;;;;;5.45;4.57;;;;;;;14.35;100.00;100389.72;4990733;28;20073;-57
2022/10/15 10:05:42;;;;;;;6.55;4.55;;;;;;;14.39;100.00;100395.66;4988106;28;20038;-56
2022/10/15 10:08:23;;;;;;;4.97;4.32;;;;;;;14.24;100.00;100369.25;4989377;28;20038;-56
2022/10/15 10:11:06;;;;;;;6.28;4.68;;;;;;;14.40;100.00;100386.66;4989415;28;20030;-57
2022/10/15 10:13:44;;;;;;;5.72;4.60;;;;;;;14.45;100.00;100395.13;4989385;28;20117;-56
2022/10/15 10:16:12;;;;;;;7.38;4.00;;;;;;;14.46;100.00;100389.63;4970225;28;20026;-57
2022/10/15 10:18:38;;;;;;;6.55;3.55;;;;;;;14.51;100.00;100386.56;4989905;28;20049;-56
2022/10/15 10:21:19;;;;;;;4.25;3.85;;;;;;;14.51;100.00;100390.13;4955849;28;20062;-56
2022/10/15 10:23:45;;;;;;;4.20;3.80;;;;;;;14.56;100.00;100388.88;4987281;28;20046;-56
2022/10/15 10:26:11;;;;;;;4.00;3.60;;;;;;;14.59;100.00;100388.59;5004366;28;20029;-57
2022/10/15 10:28:54;;;;;;;4.38;3.13;;;;;;;14.61;100.00;100394.66;4974273;28;20030;-56
2022/10/15 10:31:41;;;;;;;5.07;3.08;;;;;;;14.62;100.00;100394.56;4970818;28;20545;-56
2022/10/15 10:34:14;;;;;;;4.20;3.13;;;;;;;14.70;100.00;100391.19;4975558;28;20431;-56
2022/10/15 10:36:40;;;;;;;4.22;3.03;;;;;;;14.69;100.00;100386.81;4988539;28;20027;-57
2022/10/15 10:39:14;;;;;;;3.38;2.65;;;;;;;14.73;100.00;100405.16;4989983;28;20033;-56
2022/10/15 10:41:49;;;;;;;3.25;2.95;;;;;;;14.77;100.00;100400.38;4990179;28;20488;-56
2022/10/15 10:44:39;;;;;;;3.80;2.58;;;;;;;14.84;100.00;100400.69;4989592;28;20156;-56
2022/10/15 10:47:08;;;;;;;4.35;2.75;;;;;;;14.91;100.00;100405.38;4989671;28;20066;-56
2022/10/15 10:49:36;;;;;;;;;;;;;;;14.97;100.00;100399.47;5005070;28;20037;-56
2022/10/15 10:52:02;;;;;;;4.43;2.60;;;;;;;14.92;100.00;100406.22;4989955;28;19917;-56
2022/10/15 10:54:30;;;;;;;3.92;3.25;;;;;;;14.92;100.00;100395.50;4988341;28;20481;-56
2022/10/15 10:56:57;;;;;;;3.75;3.30;;;;;;;14.97;100.00;100396.81;4983032;28;20034;-56
2022/10/15 10:59:34;;;;;;;3.72;3.33;;;;;;;15.01;100.00;100394.69;4980345;28;20366;-56
2022/10/15 11:01:59;;;;;;;3.53;3.22;;;;;;;15.02;100.00;100392.84;4988402;28;20030;-56
2022/10/15 11:04:30;;;;;;;3.50;2.83;;;;;;;15.02;100.00;100376.78;4976152;28;20031;-56
2022/10/15 11:06:59;;;;;;;3.90;3.50;;;;;;;15.06;100.00;100391.59;4970741;28;20102;-56
2022/10/15 11:09:50;;;;;;;3.40;3.10;;;;;;;15.10;100.00;100387.66;4988959;28;20041;-56
2022/10/15 11:12:24;;;;;;;3.25;2.95;;;;;;;15.13;100.00;100379.34;4972478;28;20477;-56
2022/10/15 11:15:27;;;;;;;5.15;3.67;;;;;;;15.17;100.00;100381.59;4987931;28;20030;-56